sensor_id;sensor_type;location;lat;lon;timestamp;temperature;humidity
12520;DHT22;6325;49.540;8.364;2022-10-30T00:00:56;16.00;99.90
12520;DHT22;6325;49.540;8.364;2022-10-30T00:03:23;15.80;99.90
12520;DHT22;6325;49.540;8.364;2022-10-30T00:05:50;16.50;99.90
12520;DHT22;6325;49.540;8.364;2022-10-30T00:08:21;16.40;99.90
12520;DHT22;6325;49.540;8.364;2022-10-30T00:10:50;17.00;99.90
12520;DHT22;6325;49.540;8.364;2022-10-30T00:13:17;16.20;99.90
12520;DHT22;6325;49.540;8.364;2022-10-30T00:15:52;16.00;99.90
12520;DHT22;6325;49.540;8.364;2022-10-30T00:18:19;16.90;99.90
12520;DHT22;6325;49.540;8.364;2022-10-30T00:20:50;16.70;99.90
12520;DHT22;6325;49.540;8.364;2022-10-30T00:23:18;16.40;99.90
12520;DHT22;6325;49.540;8.364;2022-10-30T00:25:49;16.80;99.90
12520;DHT22;6325;49.540;8.364;2022-10-30T00:28:21;16.70;99.90
12520;DHT22;6325;49.540;8.364;2022-10-30T00:30:48;16.70;99.90
12520;DHT22;6325;49.540;8.364;2022-10-30T00:33:15;16.20;99.90
12520;DHT22;6325;49.540;8.364;2022-10-30T00:35:48;17.20;99.90
12520;DHT22;6325;49.540;8.364;2022-10-30T00:38:15;16.60;99.90
12520;DHT22;6325;49.540;8.364;2022-10-30T00:40:46;16.90;99.90
12520;DHT22;6325;49.540;8.364;2022-10-30T00:43:29;16.50;99.90
12520;DHT22;6325;49.540;8.364;2022-10-30T00:45:58;16.70;99.90
12520;DHT22;6325;49.540;8.364;2022-10-30T00:48:26;16.70;99.90
12520;DHT22;6325;49.540;8.364;2022-10-30T00:50:54;16.40;99.90
12520;DHT22;6325;49.540;8.364;2022-10-30T00:53:23;16.70;99.90
12520;DHT22;6325;49.540;8.364;2022-10-30T00:55:54;16.90;99.90
12520;DHT22;6325;49.540;8.364;2022-10-30T00:58:26;16.60;99.90
12520;DHT22;6325;49.540;8.364;2022-10-30T01:00:57;16.80;99.90
12520;DHT22;6325;49.540;8.364;2022-10-30T01:03:27;16.70;99.90
12520;DHT22;6325;49.540;8.364;2022-10-30T01:05:57;16.80;99.90
12520;DHT22;6325;49.540;8.364;2022-10-30T01:08:24;16.30;99.90
12520;DHT22;6325;49.540;8.364;2022-10-30T01:10:53;17.00;99.90
12520;DHT22;6325;49.540;8.364;2022-10-30T01:13:21;16.70;99.90
12520;DHT22;6325;49.540;8.364;2022-10-30T01:16:03;16.90;99.90
12520;DHT22;6325;49.540;8.364;2022-10-30T01:18:37;16.70;99.90
12520;DHT22;6325;49.540;8.364;2022-10-30T01:21:18;17.00;99.90
12520;DHT22;6325;49.540;8.364;2022-10-30T01:23:59;16.80;99.90
12520;DHT22;6325;49.540;8.364;2022-10-30T01:26:37;16.70;99.90
12520;DHT22;6325;49.540;8.364;2022-10-30T01:29:25;16.80;99.90
12520;DHT22;6325;49.540;8.364;2022-10-30T01:32:05;17.10;99.90
12520;DHT22;6325;49.540;8.364;2022-10-30T01:34:42;16.20;99.90
12520;DHT22;6325;49.540;8.364;2022-10-30T01:37:15;17.10;99.90
12520;DHT22;6325;49.540;8.364;2022-10-30T01:39:43;16.70;99.90
12520;DHT22;6325;49.540;8.364;2022-10-30T01:42:43;17.00;99.90
12520;DHT22;6325;49.540;8.364;2022-10-30T01:45:19;16.70;99.90
12520;DHT22;6325;49.540;8.364;2022-10-30T01:47:58;16.80;99.90
12520;DHT22;6325;49.540;8.364;2022-10-30T01:50:37;16.70;99.90
12520;DHT22;6325;49.540;8.364;2022-10-30T01:53:12;16.10;99.90
12520;DHT22;6325;49.540;8.364;2022-10-30T01:55:49;16.20;99.90
12520;DHT22;6325;49.540;8.364;2022-10-30T01:58:27;16.70;99.90
12520;DHT22;6325;49.540;8.364;2022-10-30T02:00:58;16.50;99.90
12520;DHT22;6325;49.540;8.364;2022-10-30T02:03:26;16.80;99.90
12520;DHT22;6325;49.540;8.364;2022-10-30T02:05:53;16.00;99.90
12520;DHT22;6325;49.540;8.364;2022-10-30T02:08:21;16.00;99.90
12520;DHT22;6325;49.540;8.364;2022-10-30T02:10:50;16.50;99.90
12520;DHT22;6325;49.540;8.364;2022-10-30T02:13:18;16.70;99.90
12520;DHT22;6325;49.540;8.364;2022-10-30T02:15:48;16.40;99.90
12520;DHT22;6325;49.540;8.364;2022-10-30T02:18:15;16.30;99.90
12520;DHT22;6325;49.540;8.364;2022-10-30T02:20:43;16.80;99.90
12520;DHT22;6325;49.540;8.364;2022-10-30T02:23:10;16.40;99.90
12520;DHT22;6325;49.540;8.364;2022-10-30T02:25:43;16.40;99.90
12520;DHT22;6325;49.540;8.364;2022-10-30T02:28:11;16.30;99.90
12520;DHT22;6325;49.540;8.364;2022-10-30T02:30:39;15.70;99.90
12520;DHT22;6325;49.540;8.364;2022-10-30T02:33:11;15.90;99.90
12520;DHT22;6325;49.540;8.364;2022-10-30T02:35:38;16.10;99.90
12520;DHT22;6325;49.540;8.364;2022-10-30T02:38:06;16.20;99.90
12520;DHT22;6325;49.540;8.364;2022-10-30T02:40:33;16.20;99.90
12520;DHT22;6325;49.540;8.364;2022-10-30T02:43:00;16.40;99.90
12520;DHT22;6325;49.540;8.364;2022-10-30T02:45:28;16.20;99.90
12520;DHT22;6325;49.540;8.364;2022-10-30T02:47:55;16.30;99.90
12520;DHT22;6325;49.540;8.364;2022-10-30T02:50:24;16.10;99.90
12520;DHT22;6325;49.540;8.364;2022-10-30T02:52:51;16.10;99.90
12520;DHT22;6325;49.540;8.364;2022-10-30T02:55:20;15.70;99.90
12520;DHT22;6325;49.540;8.364;2022-10-30T02:57:47;16.30;99.90
12520;DHT22;6325;49.540;8.364;2022-10-30T03:00:17;16.60;99.90
12520;DHT22;6325;49.540;8.364;2022-10-30T03:02:44;16.10;99.90
12520;DHT22;6325;49.540;8.364;2022-10-30T03:05:10;15.80;99.90
12520;DHT22;6325;49.540;8.364;2022-10-30T03:07:37;16.00;99.90
12520;DHT22;6325;49.540;8.364;2022-10-30T03:10:05;16.10;99.90
12520;DHT22;6325;49.540;8.364;2022-10-30T03:12:33;16.10;99.90
12520;DHT22;6325;49.540;8.364;2022-10-30T03:15:00;16.00;99.90
12520;DHT22;6325;49.540;8.364;2022-10-30T03:17:27;15.80;99.90
12520;DHT22;6325;49.540;8.364;2022-10-30T03:19:54;15.90;99.90
12520;DHT22;6325;49.540;8.364;2022-10-30T03:22:21;15.90;99.90
12520;DHT22;6325;49.540;8.364;2022-10-30T03:24:48;15.90;99.90
12520;DHT22;6325;49.540;8.364;2022-10-30T03:27:15;15.80;99.90
12520;DHT22;6325;49.540;8.364;2022-10-30T03:29:44;16.00;99.90
12520;DHT22;6325;49.540;8.364;2022-10-30T03:32:11;15.20;99.90
12520;DHT22;6325;49.540;8.364;2022-10-30T03:34:38;16.00;99.90
12520;DHT22;6325;49.540;8.364;2022-10-30T03:37:05;16.20;99.90
12520;DHT22;6325;49.540;8.364;2022-10-30T03:39:32;15.50;99.90
12520;DHT22;6325;49.540;8.364;2022-10-30T03:41:59;15.60;99.90
12520;DHT22;6325;49.540;8.364;2022-10-30T03:44:26;15.50;99.90
12520;DHT22;6325;49.540;8.364;2022-10-30T03:46:54;15.60;99.90
12520;DHT22;6325;49.540;8.364;2022-10-30T03:49:22;15.40;99.90
12520;DHT22;6325;49.540;8.364;2022-10-30T03:51:49;15.20;99.90
12520;DHT22;6325;49.540;8.364;2022-10-30T03:54:16;15.40;99.90
12520;DHT22;6325;49.540;8.364;2022-10-30T03:56:45;15.10;99.90
12520;DHT22;6325;49.540;8.364;2022-10-30T03:59:12;15.80;99.90
12520;DHT22;6325;49.540;8.364;2022-10-30T04:01:40;15.30;99.90
12520;DHT22;6325;49.540;8.364;2022-10-30T04:04:08;15.30;99.90
12520;DHT22;6325;49.540;8.364;2022-10-30T04:06:35;15.40;99.90
12520;DHT22;6325;49.540;8.364;2022-10-30T04:09:03;15.20;99.90
12520;DHT22;6325;49.540;8.364;2022-10-30T04:11:36;15.20;99.90
12520;DHT22;6325;49.540;8.364;2022-10-30T04:14:03;15.20;99.90
12520;DHT22;6325;49.540;8.364;2022-10-30T04:16:30;15.20;99.90
12520;DHT22;6325;49.540;8.364;2022-10-30T04:18:57;14.70;99.90
12520;DHT22;6325;49.540;8.364;2022-10-30T04:21:25;15.10;99.90
12520;DHT22;6325;49.540;8.364;2022-10-30T04:23:52;15.30;99.90
12520;DHT22;6325;49.540;8.364;2022-10-30T04:26:19;14.80;99.90
12520;DHT22;6325;49.540;8.364;2022-10-30T04:28:47;14.70;99.90
12520;DHT22;6325;49.540;8.364;2022-10-30T04:31:15;14.90;99.90
12520;DHT22;6325;49.540;8.364;2022-10-30T04:33:42;14.90;99.90
12520;DHT22;6325;49.540;8.364;2022-10-30T04:36:09;14.40;99.90
12520;DHT22;6325;49.540;8.364;2022-10-30T04:38:37;14.80;99.90
12520;DHT22;6325;49.540;8.364;2022-10-30T04:41:04;15.00;99.90
12520;DHT22;6325;49.540;8.364;2022-10-30T04:43:31;14.60;99.90
12520;DHT22;6325;49.540;8.364;2022-10-30T04:45:58;14.20;99.90
12520;DHT22;6325;49.540;8.364;2022-10-30T04:48:25;14.60;99.90
12520;DHT22;6325;49.540;8.364;2022-10-30T04:50:52;15.10;99.90
12520;DHT22;6325;49.540;8.364;2022-10-30T04:53:19;14.20;99.90
12520;DHT22;6325;49.540;8.364;2022-10-30T04:55:52;14.80;99.90
12520;DHT22;6325;49.540;8.364;2022-10-30T04:58:19;14.30;99.90
12520;DHT22;6325;49.540;8.364;2022-10-30T05:00:46;14.50;99.90
12520;DHT22;6325;49.540;8.364;2022-10-30T05:03:17;14.40;99.90
12520;DHT22;6325;49.540;8.364;2022-10-30T05:05:45;14.70;99.90
12520;DHT22;6325;49.540;8.364;2022-10-30T05:08:13;14.40;99.90
12520;DHT22;6325;49.540;8.364;2022-10-30T05:10:40;14.50;99.90
12520;DHT22;6325;49.540;8.364;2022-10-30T05:13:09;14.30;99.90
12520;DHT22;6325;49.540;8.364;2022-10-30T05:15:37;14.40;99.90
12520;DHT22;6325;49.540;8.364;2022-10-30T05:18:04;14.70;99.90
12520;DHT22;6325;49.540;8.364;2022-10-30T05:20:31;14.30;99.90
12520;DHT22;6325;49.540;8.364;2022-10-30T05:22:58;14.40;99.90
12520;DHT22;6325;49.540;8.364;2022-10-30T05:25:26;14.30;99.90
12520;DHT22;6325;49.540;8.364;2022-10-30T05:27:56;14.70;99.90
12520;DHT22;6325;49.540;8.364;2022-10-30T05:30:25;14.20;99.90
12520;DHT22;6325;49.540;8.364;2022-10-30T05:32:57;14.70;99.90
12520;DHT22;6325;49.540;8.364;2022-10-30T05:35:24;14.60;99.90
12520;DHT22;6325;49.540;8.364;2022-10-30T05:37:52;14.30;99.90
12520;DHT22;6325;49.540;8.364;2022-10-30T05:40:19;13.90;99.90
12520;DHT22;6325;49.540;8.364;2022-10-30T05:42:46;14.80;99.90
12520;DHT22;6325;49.540;8.364;2022-10-30T05:45:13;13.90;99.90
12520;DHT22;6325;49.540;8.364;2022-10-30T05:47:48;14.60;99.90
12520;DHT22;6325;49.540;8.364;2022-10-30T05:50:19;14.20;99.90
12520;DHT22;6325;49.540;8.364;2022-10-30T05:52:46;14.10;99.90
12520;DHT22;6325;49.540;8.364;2022-10-30T05:55:13;14.40;99.90
12520;DHT22;6325;49.540;8.364;2022-10-30T05:57:40;14.10;99.90
12520;DHT22;6325;49.540;8.364;2022-10-30T06:00:08;14.10;99.90
12520;DHT22;6325;49.540;8.364;2022-10-30T06:02:37;14.50;99.90
12520;DHT22;6325;49.540;8.364;2022-10-30T06:05:06;14.30;99.90
12520;DHT22;6325;49.540;8.364;2022-10-30T06:07:41;14.00;99.90
12520;DHT22;6325;49.540;8.364;2022-10-30T06:10:15;13.90;99.90
12520;DHT22;6325;49.540;8.364;2022-10-30T06:12:42;14.00;99.90
12520;DHT22;6325;49.540;8.364;2022-10-30T06:15:09;14.50;99.90
12520;DHT22;6325;49.540;8.364;2022-10-30T06:17:36;14.00;99.90
12520;DHT22;6325;49.540;8.364;2022-10-30T06:20:05;14.00;99.90
12520;DHT22;6325;49.540;8.364;2022-10-30T06:22:32;14.00;99.90
12520;DHT22;6325;49.540;8.364;2022-10-30T06:24:59;14.40;99.90
12520;DHT22;6325;49.540;8.364;2022-10-30T06:27:26;14.40;99.90
12520;DHT22;6325;49.540;8.364;2022-10-30T06:29:53;13.90;99.90
12520;DHT22;6325;49.540;8.364;2022-10-30T06:32:20;14.00;99.90
12520;DHT22;6325;49.540;8.364;2022-10-30T06:34:47;14.00;99.90
12520;DHT22;6325;49.540;8.364;2022-10-30T06:37:15;14.80;99.90
12520;DHT22;6325;49.540;8.364;2022-10-30T06:39:42;14.10;99.90
12520;DHT22;6325;49.540;8.364;2022-10-30T06:42:09;13.80;99.90
12520;DHT22;6325;49.540;8.364;2022-10-30T06:44:36;13.90;99.90
12520;DHT22;6325;49.540;8.364;2022-10-30T06:47:03;14.20;99.90
12520;DHT22;6325;49.540;8.364;2022-10-30T06:49:30;14.00;99.90
12520;DHT22;6325;49.540;8.364;2022-10-30T06:51:57;13.90;99.90
12520;DHT22;6325;49.540;8.364;2022-10-30T06:54:26;13.90;99.90
12520;DHT22;6325;49.540;8.364;2022-10-30T06:57:10;13.60;99.90
12520;DHT22;6325;49.540;8.364;2022-10-30T06:59:45;14.00;99.90
12520;DHT22;6325;49.540;8.364;2022-10-30T07:02:55;14.00;99.90
12520;DHT22;6325;49.540;8.364;2022-10-30T07:09:03;13.60;99.90
12520;DHT22;6325;49.540;8.364;2022-10-30T07:12:07;14.10;99.90
12520;DHT22;6325;49.540;8.364;2022-10-30T07:14:56;14.00;99.90
12520;DHT22;6325;49.540;8.364;2022-10-30T07:17:53;14.70;99.90
12520;DHT22;6325;49.540;8.364;2022-10-30T07:20:34;14.60;99.90
12520;DHT22;6325;49.540;8.364;2022-10-30T07:23:26;14.00;99.90
12520;DHT22;6325;49.540;8.364;2022-10-30T07:25:58;14.10;99.90
12520;DHT22;6325;49.540;8.364;2022-10-30T07:32:19;14.30;99.90
12520;DHT22;6325;49.540;8.364;2022-10-30T07:35:30;13.80;99.90
12520;DHT22;6325;49.540;8.364;2022-10-30T07:38:08;14.70;99.90
12520;DHT22;6325;49.540;8.364;2022-10-30T07:40:53;14.60;99.90
12520;DHT22;6325;49.540;8.364;2022-10-30T07:43:29;14.80;99.90
12520;DHT22;6325;49.540;8.364;2022-10-30T07:45:58;14.40;99.90
12520;DHT22;6325;49.540;8.364;2022-10-30T07:48:38;14.20;99.90
12520;DHT22;6325;49.540;8.364;2022-10-30T07:51:18;14.50;99.90
12520;DHT22;6325;49.540;8.364;2022-10-30T07:53:55;14.80;99.90
12520;DHT22;6325;49.540;8.364;2022-10-30T07:56:34;13.90;99.90
12520;DHT22;6325;49.540;8.364;2022-10-30T07:59:11;14.20;99.90
12520;DHT22;6325;49.540;8.364;2022-10-30T08:01:56;14.50;99.90
12520;DHT22;6325;49.540;8.364;2022-10-30T08:07:36;14.60;99.90
12520;DHT22;6325;49.540;8.364;2022-10-30T08:10:19;14.60;99.90
12520;DHT22;6325;49.540;8.364;2022-10-30T08:12:56;14.60;99.90
12520;DHT22;6325;49.540;8.364;2022-10-30T08:15:46;14.70;99.90
12520;DHT22;6325;49.540;8.364;2022-10-30T11:17:51;19.90;99.90
12520;DHT22;6325;49.540;8.364;2022-10-30T11:20:27;20.20;99.90
12520;DHT22;6325;49.540;8.364;2022-10-30T11:22:55;21.00;99.90
12520;DHT22;6325;49.540;8.364;2022-10-30T11:25:24;21.00;99.90
12520;DHT22;6325;49.540;8.364;2022-10-30T11:27:55;21.20;99.90
12520;DHT22;6325;49.540;8.364;2022-10-30T11:30:24;20.60;99.90
12520;DHT22;6325;49.540;8.364;2022-10-30T11:32:54;20.30;99.90
12520;DHT22;6325;49.540;8.364;2022-10-30T11:35:29;20.40;99.90
12520;DHT22;6325;49.540;8.364;2022-10-30T11:38:26;20.80;99.90
12520;DHT22;6325;49.540;8.364;2022-10-30T11:40:56;21.20;99.90
12520;DHT22;6325;49.540;8.364;2022-10-30T11:43:38;20.30;99.90
12520;DHT22;6325;49.540;8.364;2022-10-30T11:46:06;21.20;99.90
12520;DHT22;6325;49.540;8.364;2022-10-30T11:48:38;21.30;99.90
12520;DHT22;6325;49.540;8.364;2022-10-30T11:51:13;21.30;99.90
12520;DHT22;6325;49.540;8.364;2022-10-30T11:53:56;21.40;99.90
12520;DHT22;6325;49.540;8.364;2022-10-30T11:56:28;21.60;99.90
12520;DHT22;6325;49.540;8.364;2022-10-30T11:59:00;22.10;99.90
12520;DHT22;6325;49.540;8.364;2022-10-30T12:01:29;22.40;99.90
12520;DHT22;6325;49.540;8.364;2022-10-30T12:04:13;22.40;99.90
12520;DHT22;6325;49.540;8.364;2022-10-30T12:06:41;23.40;99.90
12520;DHT22;6325;49.540;8.364;2022-10-30T12:09:13;23.80;99.90
12520;DHT22;6325;49.540;8.364;2022-10-30T12:11:48;24.00;99.90
12520;DHT22;6325;49.540;8.364;2022-10-30T12:14:20;24.40;99.90
12520;DHT22;6325;49.540;8.364;2022-10-30T12:16:53;24.20;99.90
12520;DHT22;6325;49.540;8.364;2022-10-30T12:19:28;24.20;99.90
12520;DHT22;6325;49.540;8.364;2022-10-30T12:21:59;24.60;99.90
12520;DHT22;6325;49.540;8.364;2022-10-30T12:24:32;24.30;99.90
12520;DHT22;6325;49.540;8.364;2022-10-30T12:27:03;24.50;99.90
12520;DHT22;6325;49.540;8.364;2022-10-30T12:29:37;25.10;99.90
12520;DHT22;6325;49.540;8.364;2022-10-30T12:32:24;25.20;99.90
12520;DHT22;6325;49.540;8.364;2022-10-30T12:34:58;25.50;99.90
12520;DHT22;6325;49.540;8.364;2022-10-30T12:37:32;25.30;99.90
12520;DHT22;6325;49.540;8.364;2022-10-30T12:40:04;25.30;99.90
12520;DHT22;6325;49.540;8.364;2022-10-30T12:42:39;25.00;99.90
12520;DHT22;6325;49.540;8.364;2022-10-30T12:45:13;24.00;99.90
12520;DHT22;6325;49.540;8.364;2022-10-30T12:47:44;23.80;99.90
12520;DHT22;6325;49.540;8.364;2022-10-30T12:50:19;23.30;99.90
12520;DHT22;6325;49.540;8.364;2022-10-30T12:52:54;23.10;99.90
12520;DHT22;6325;49.540;8.364;2022-10-30T12:55:25;23.30;99.90
12520;DHT22;6325;49.540;8.364;2022-10-30T12:58:00;22.50;99.90
12520;DHT22;6325;49.540;8.364;2022-10-30T13:00:35;22.50;99.90
12520;DHT22;6325;49.540;8.364;2022-10-30T13:03:16;22.20;99.90
12520;DHT22;6325;49.540;8.364;2022-10-30T13:05:50;22.10;99.90
12520;DHT22;6325;49.540;8.364;2022-10-30T13:08:22;22.20;99.90
12520;DHT22;6325;49.540;8.364;2022-10-30T13:10:53;22.40;99.90
12520;DHT22;6325;49.540;8.364;2022-10-30T13:13:28;22.10;99.90
12520;DHT22;6325;49.540;8.364;2022-10-30T13:16:01;22.20;99.90
12520;DHT22;6325;49.540;8.364;2022-10-30T13:18:30;22.60;99.90
12520;DHT22;6325;49.540;8.364;2022-10-30T13:21:13;22.10;99.90
12520;DHT22;6325;49.540;8.364;2022-10-30T13:23:49;22.20;99.90
12520;DHT22;6325;49.540;8.364;2022-10-30T13:26:33;22.20;99.90
12520;DHT22;6325;49.540;8.364;2022-10-30T13:29:08;21.80;99.90
12520;DHT22;6325;49.540;8.364;2022-10-30T13:31:46;22.30;99.90
12520;DHT22;6325;49.540;8.364;2022-10-30T13:34:29;22.10;99.90
12520;DHT22;6325;49.540;8.364;2022-10-30T13:37:06;22.10;99.90
12520;DHT22;6325;49.540;8.364;2022-10-30T13:39:41;22.10;99.90
12520;DHT22;6325;49.540;8.364;2022-10-30T13:42:21;22.10;99.90
12520;DHT22;6325;49.540;8.364;2022-10-30T13:45:00;22.00;99.90
12520;DHT22;6325;49.540;8.364;2022-10-30T13:47:35;22.10;99.90
12520;DHT22;6325;49.540;8.364;2022-10-30T13:50:21;21.90;99.90
12520;DHT22;6325;49.540;8.364;2022-10-30T13:52:56;22.00;99.90
12520;DHT22;6325;49.540;8.364;2022-10-30T13:55:28;22.00;99.90
12520;DHT22;6325;49.540;8.364;2022-10-30T13:58:00;22.10;99.90
12520;DHT22;6325;49.540;8.364;2022-10-30T14:00:48;22.00;99.90
12520;DHT22;6325;49.540;8.364;2022-10-30T14:03:25;22.00;99.90
12520;DHT22;6325;49.540;8.364;2022-10-30T14:06:00;22.00;99.90
12520;DHT22;6325;49.540;8.364;2022-10-30T14:08:34;22.00;99.90
12520;DHT22;6325;49.540;8.364;2022-10-30T14:11:09;21.90;99.90
12520;DHT22;6325;49.540;8.364;2022-10-30T14:13:53;22.00;99.90
12520;DHT22;6325;49.540;8.364;2022-10-30T14:16:35;22.00;99.90
12520;DHT22;6325;49.540;8.364;2022-10-30T14:19:04;22.00;99.90
12520;DHT22;6325;49.540;8.364;2022-10-30T14:21:40;21.90;99.90
12520;DHT22;6325;49.540;8.364;2022-10-30T14:24:20;21.90;99.90
12520;DHT22;6325;49.540;8.364;2022-10-30T14:26:49;21.80;99.90
12520;DHT22;6325;49.540;8.364;2022-10-30T14:32:49;21.70;99.90
12520;DHT22;6325;49.540;8.364;2022-10-30T14:35:38;21.20;99.90
12520;DHT22;6325;49.540;8.364;2022-10-30T14:38:24;21.60;99.90
12520;DHT22;6325;49.540;8.364;2022-10-30T14:44:19;21.60;99.90
12520;DHT22;6325;49.540;8.364;2022-10-30T14:47:05;21.60;99.90
12520;DHT22;6325;49.540;8.364;2022-10-30T14:49:47;21.50;99.90
12520;DHT22;6325;49.540;8.364;2022-10-30T14:52:33;21.60;99.90
12520;DHT22;6325;49.540;8.364;2022-10-30T14:55:19;21.50;99.90
12520;DHT22;6325;49.540;8.364;2022-10-30T14:58:12;21.20;99.90
12520;DHT22;6325;49.540;8.364;2022-10-30T15:00:51;20.60;99.90
12520;DHT22;6325;49.540;8.364;2022-10-30T15:03:38;21.10;99.90
12520;DHT22;6325;49.540;8.364;2022-10-30T15:06:19;21.20;99.90
12520;DHT22;6325;49.540;8.364;2022-10-30T15:09:02;21.20;99.90
12520;DHT22;6325;49.540;8.364;2022-10-30T15:11:42;21.20;99.90
12520;DHT22;6325;49.540;8.364;2022-10-30T15:14:19;21.40;99.90
12520;DHT22;6325;49.540;8.364;2022-10-30T15:16:49;20.90;99.90
12520;DHT22;6325;49.540;8.364;2022-10-30T15:19:20;20.40;99.90
12520;DHT22;6325;49.540;8.364;2022-10-30T15:21:55;20.60;99.90
12520;DHT22;6325;49.540;8.364;2022-10-30T15:24:24;20.90;99.90
12520;DHT22;6325;49.540;8.364;2022-10-30T15:26:56;21.00;99.90
12520;DHT22;6325;49.540;8.364;2022-10-30T15:29:27;21.70;99.90
12520;DHT22;6325;49.540;8.364;2022-10-30T15:31:58;20.60;99.90
12520;DHT22;6325;49.540;8.364;2022-10-30T15:34:27;21.20;99.90
12520;DHT22;6325;49.540;8.364;2022-10-30T15:36:54;20.90;99.90
12520;DHT22;6325;49.540;8.364;2022-10-30T15:39:25;20.90;99.90
12520;DHT22;6325;49.540;8.364;2022-10-30T15:41:54;19.90;99.90
12520;DHT22;6325;49.540;8.364;2022-10-30T15:44:26;20.30;99.90
12520;DHT22;6325;49.540;8.364;2022-10-30T15:46:55;20.30;99.90
12520;DHT22;6325;49.540;8.364;2022-10-30T15:49:28;20.40;99.90
12520;DHT22;6325;49.540;8.364;2022-10-30T15:51:56;20.30;99.90
12520;DHT22;6325;49.540;8.364;2022-10-30T15:54:25;19.50;99.90
12520;DHT22;6325;49.540;8.364;2022-10-30T15:56:57;19.70;99.90
12520;DHT22;6325;49.540;8.364;2022-10-30T15:59:29;20.00;99.90
12520;DHT22;6325;49.540;8.364;2022-10-30T16:01:59;19.90;99.90
12520;DHT22;6325;49.540;8.364;2022-10-30T16:04:31;19.30;99.90
12520;DHT22;6325;49.540;8.364;2022-10-30T16:07:00;19.10;99.90
12520;DHT22;6325;49.540;8.364;2022-10-30T16:09:31;19.30;99.90
12520;DHT22;6325;49.540;8.364;2022-10-30T16:12:03;19.50;99.90
12520;DHT22;6325;49.540;8.364;2022-10-30T16:14:36;18.60;99.90
12520;DHT22;6325;49.540;8.364;2022-10-30T16:17:03;18.80;99.90
12520;DHT22;6325;49.540;8.364;2022-10-30T16:19:37;18.80;99.90
12520;DHT22;6325;49.540;8.364;2022-10-30T16:22:10;18.70;99.90
12520;DHT22;6325;49.540;8.364;2022-10-30T16:24:40;18.70;99.90
12520;DHT22;6325;49.540;8.364;2022-10-30T16:27:14;18.50;99.90
12520;DHT22;6325;49.540;8.364;2022-10-30T16:29:49;18.10;99.90
12520;DHT22;6325;49.540;8.364;2022-10-30T16:32:18;18.40;99.90
12520;DHT22;6325;49.540;8.364;2022-10-30T16:34:47;18.30;99.90
12520;DHT22;6325;49.540;8.364;2022-10-30T16:37:20;18.30;99.90
12520;DHT22;6325;49.540;8.364;2022-10-30T16:39:49;18.10;99.90
12520;DHT22;6325;49.540;8.364;2022-10-30T16:42:24;17.90;99.90
12520;DHT22;6325;49.540;8.364;2022-10-30T16:45:18;18.10;99.90
12520;DHT22;6325;49.540;8.364;2022-10-30T16:48:00;18.10;99.90
12520;DHT22;6325;49.540;8.364;2022-10-30T16:50:32;17.70;99.90
12520;DHT22;6325;49.540;8.364;2022-10-30T16:53:04;18.50;99.90
12520;DHT22;6325;49.540;8.364;2022-10-30T16:55:38;18.30;99.90
12520;DHT22;6325;49.540;8.364;2022-10-30T16:58:08;18.30;99.90
12520;DHT22;6325;49.540;8.364;2022-10-30T17:00:46;18.00;99.90
12520;DHT22;6325;49.540;8.364;2022-10-30T17:03:14;17.80;99.90
12520;DHT22;6325;49.540;8.364;2022-10-30T17:05:56;17.70;99.90
12520;DHT22;6325;49.540;8.364;2022-10-30T17:11:33;18.50;99.90
12520;DHT22;6325;49.540;8.364;2022-10-30T17:14:01;17.80;99.90
12520;DHT22;6325;49.540;8.364;2022-10-30T17:16:32;17.90;99.90
12520;DHT22;6325;49.540;8.364;2022-10-30T17:19:01;18.00;99.90
12520;DHT22;6325;49.540;8.364;2022-10-30T17:21:50;18.30;99.90
12520;DHT22;6325;49.540;8.364;2022-10-30T17:24:20;17.90;99.90
12520;DHT22;6325;49.540;8.364;2022-10-30T17:26:54;17.80;99.90
12520;DHT22;6325;49.540;8.364;2022-10-30T17:29:43;17.70;99.90
12520;DHT22;6325;49.540;8.364;2022-10-30T17:32:18;18.10;99.90
12520;DHT22;6325;49.540;8.364;2022-10-30T17:34:45;17.80;99.90
12520;DHT22;6325;49.540;8.364;2022-10-30T17:37:13;17.90;99.90
12520;DHT22;6325;49.540;8.364;2022-10-30T17:39:40;17.60;99.90
12520;DHT22;6325;49.540;8.364;2022-10-30T17:42:09;17.50;99.90
12520;DHT22;6325;49.540;8.364;2022-10-30T17:44:36;17.30;99.90
12520;DHT22;6325;49.540;8.364;2022-10-30T17:47:11;17.70;99.90
12520;DHT22;6325;49.540;8.364;2022-10-30T17:49:43;17.70;99.90
12520;DHT22;6325;49.540;8.364;2022-10-30T17:52:12;17.60;99.90
12520;DHT22;6325;49.540;8.364;2022-10-30T17:54:40;17.30;99.90
12520;DHT22;6325;49.540;8.364;2022-10-30T17:57:09;17.70;99.90
12520;DHT22;6325;49.540;8.364;2022-10-30T17:59:36;17.60;99.90
12520;DHT22;6325;49.540;8.364;2022-10-30T18:02:11;17.40;99.90
12520;DHT22;6325;49.540;8.364;2022-10-30T18:04:40;17.50;99.90
12520;DHT22;6325;49.540;8.364;2022-10-30T18:07:11;17.80;99.90
12520;DHT22;6325;49.540;8.364;2022-10-30T18:09:43;17.40;99.90
12520;DHT22;6325;49.540;8.364;2022-10-30T18:12:13;17.70;99.90
12520;DHT22;6325;49.540;8.364;2022-10-30T18:14:43;17.20;99.90
12520;DHT22;6325;49.540;8.364;2022-10-30T18:17:15;17.10;99.90
12520;DHT22;6325;49.540;8.364;2022-10-30T18:19:46;17.20;99.90
12520;DHT22;6325;49.540;8.364;2022-10-30T18:22:16;17.20;99.90
12520;DHT22;6325;49.540;8.364;2022-10-30T18:24:43;17.10;99.90
12520;DHT22;6325;49.540;8.364;2022-10-30T18:27:10;17.20;99.90
12520;DHT22;6325;49.540;8.364;2022-10-30T18:29:40;17.10;99.90
12520;DHT22;6325;49.540;8.364;2022-10-30T18:32:10;17.10;99.90
12520;DHT22;6325;49.540;8.364;2022-10-30T18:34:37;17.10;99.90
12520;DHT22;6325;49.540;8.364;2022-10-30T18:37:06;17.10;99.90
12520;DHT22;6325;49.540;8.364;2022-10-30T18:39:33;17.00;99.90
12520;DHT22;6325;49.540;8.364;2022-10-30T18:42:00;17.00;99.90
12520;DHT22;6325;49.540;8.364;2022-10-30T18:44:27;17.00;99.90
12520;DHT22;6325;49.540;8.364;2022-10-30T18:46:54;16.90;99.90
12520;DHT22;6325;49.540;8.364;2022-10-30T18:49:21;16.90;99.90
12520;DHT22;6325;49.540;8.364;2022-10-30T18:51:52;16.40;99.90
12520;DHT22;6325;49.540;8.364;2022-10-30T18:54:21;16.90;99.90
12520;DHT22;6325;49.540;8.364;2022-10-30T18:56:49;16.70;99.90
12520;DHT22;6325;49.540;8.364;2022-10-30T18:59:16;16.60;99.90
12520;DHT22;6325;49.540;8.364;2022-10-30T19:01:45;16.60;99.90
12520;DHT22;6325;49.540;8.364;2022-10-30T19:04:12;16.70;99.90
12520;DHT22;6325;49.540;8.364;2022-10-30T19:06:39;16.70;99.90
12520;DHT22;6325;49.540;8.364;2022-10-30T19:09:06;16.80;99.90
12520;DHT22;6325;49.540;8.364;2022-10-30T19:11:35;16.50;99.90
12520;DHT22;6325;49.540;8.364;2022-10-30T19:14:02;16.30;99.90
12520;DHT22;6325;49.540;8.364;2022-10-30T19:16:29;16.20;99.90
12520;DHT22;6325;49.540;8.364;2022-10-30T19:18:56;16.20;99.90
12520;DHT22;6325;49.540;8.364;2022-10-30T19:21:24;16.70;99.90
12520;DHT22;6325;49.540;8.364;2022-10-30T19:23:53;15.50;99.90
12520;DHT22;6325;49.540;8.364;2022-10-30T19:26:20;16.10;99.90
12520;DHT22;6325;49.540;8.364;2022-10-30T19:28:49;16.00;99.90
12520;DHT22;6325;49.540;8.364;2022-10-30T19:31:17;16.60;99.90
12520;DHT22;6325;49.540;8.364;2022-10-30T19:33:45;16.00;99.90
12520;DHT22;6325;49.540;8.364;2022-10-30T19:36:24;16.30;99.90